Decoded Metar for CYDN (DAUPHIN in MB, CANADA) (IATA:YDN) | Meteo·Mobile Aviation Weather
aviador You're here:

CYDN Decoded Metar

DAUPHIN in MB, CANADA
Report Time2018-09-20 14:00:00
UTC Time2018-09-20 14:43:56
Flight Rules vfr VFR
Wind310° at 03 kt
W.Decomp.*RWY 32: 2.9 kt HW 0.9 kt LCW
RWY 26: 2.2 kt HW 2.0 kt RCW
RWY 02: 0.7 kt HW 2.9 kt LCW
W.Rank310° ranks 30
Current wind is below 310° avg. (7.2)
Visibility9999 m
Phenomena:N/A
Clouds:Overcast 080 Hf
Expected CloudBase > 400 ft AGL from Temp-Dew spread
Ceiling8,000 ft
Temp04°C (ISA -9)
Dew Point03°C (93% RH)
AAT1.4°C
QNH1021 hPa
Density Alt-253 ft
Elevation1,001 ft
Report Wrong Elevation
Raw Report
CYDN 201400Z AUTO 31003KT 210V320 9SM OVC080 04/03 A3016 RMK
SLP229=

Extra information for CYDN:More info

Metar Taf Metar & Taf Last 4 Metars F.Rules Stats Wind Profile Meteogram Temp Stats Airport Information Weather charts Add Link Nearby VenuesMetar ALERT Operation Metar Decoded Social comments